createdAt,value
2022-08-10T00:01:54.214Z,24.10
2022-08-10T00:04:22.545Z,24.00
2022-08-10T00:06:50.751Z,24.00
2022-08-10T00:09:17.240Z,24.00
2022-08-10T00:11:43.768Z,24.00
2022-08-10T00:14:10.262Z,23.90
2022-08-10T00:16:36.797Z,23.90
2022-08-10T00:19:03.292Z,23.90
2022-08-10T00:21:29.730Z,23.90
2022-08-10T00:23:56.227Z,23.80
2022-08-10T00:26:22.727Z,23.80
2022-08-10T00:28:49.176Z,23.80
2022-08-10T00:31:15.690Z,23.80
2022-08-10T00:33:42.144Z,23.70
2022-08-10T00:36:08.659Z,23.70
2022-08-10T00:38:37.128Z,23.70
2022-08-10T00:41:04.063Z,23.70
2022-08-10T00:43:30.578Z,23.60
2022-08-10T00:45:59.790Z,23.60
2022-08-10T00:48:28.138Z,23.60
2022-08-10T00:50:54.981Z,23.50
2022-08-10T00:53:21.641Z,23.50
2022-08-10T00:57:14.519Z,23.50
2022-08-10T00:58:35.451Z,23.50
2022-08-10T01:01:02.050Z,23.50
2022-08-10T01:04:54.658Z,23.40
2022-08-10T01:06:33.052Z,23.40
2022-08-10T01:09:09.336Z,23.40
2022-08-10T01:12:28.541Z,23.30
2022-08-10T01:14:46.273Z,23.30
2022-08-10T01:17:21.882Z,23.30
2022-08-10T01:19:48.293Z,23.30
2022-08-10T01:22:17.551Z,23.20
2022-08-10T01:24:46.995Z,23.20
2022-08-10T01:27:19.197Z,23.20
2022-08-10T01:29:55.237Z,23.20
2022-08-10T01:32:41.955Z,23.20
2022-08-10T01:35:13.684Z,23.10
2022-08-10T01:37:52.411Z,23.10
2022-08-10T01:40:23.058Z,23.10
2022-08-10T01:42:50.250Z,23.00
2022-08-10T01:45:18.322Z,23.00
2022-08-10T01:48:04.763Z,23.00
2022-08-10T01:50:59.560Z,23.00
2022-08-10T01:53:29.372Z,22.90
2022-08-10T01:56:08.419Z,22.90
2022-08-10T01:58:35.643Z,22.90
2022-08-10T02:01:02.955Z,22.90
2022-08-10T02:03:31.582Z,22.80
2022-08-10T02:05:59.650Z,22.80
2022-08-10T02:08:26.738Z,22.80
2022-08-10T02:10:54.497Z,22.80
2022-08-10T02:13:21.835Z,22.70
2022-08-10T02:16:01.262Z,22.70
2022-08-10T02:18:29.728Z,22.70
2022-08-10T02:20:57.031Z,22.70
2022-08-10T02:23:28.906Z,22.70
2022-08-10T02:25:58.856Z,22.60
2022-08-10T02:28:30.857Z,22.60
2022-08-10T02:31:00.363Z,22.60
2022-08-10T02:33:27.780Z,22.60
2022-08-10T02:35:56.136Z,22.50
2022-08-10T02:38:59.117Z,22.50
2022-08-10T02:45:13.193Z,22.50
2022-08-10T02:45:25.338Z,22.50
2022-08-10T02:47:46.616Z,22.40
2022-08-10T02:50:39.153Z,22.40
2022-08-10T02:53:56.688Z,22.40
2022-08-10T02:56:04.950Z,22.30
2022-08-10T02:58:43.638Z,22.30
2022-08-10T03:01:16.187Z,22.30
2022-08-10T03:03:48.459Z,22.30
2022-08-10T03:06:17.869Z,22.20
2022-08-10T03:08:45.342Z,22.20
2022-08-10T03:12:16.779Z,22.20
2022-08-10T03:14:18.565Z,22.20
2022-08-10T03:16:46.412Z,22.10
2022-08-10T03:20:34.943Z,22.10
2022-08-10T03:22:00.559Z,22.10
2022-08-10T03:24:32.588Z,22.10
2022-08-10T03:27:00.446Z,22.00
2022-08-10T03:29:27.686Z,22.00
2022-08-10T03:31:55.460Z,22.00
2022-08-10T03:34:33.037Z,22.00
2022-08-10T03:37:00.583Z,22.00
2022-08-10T03:39:27.387Z,22.00
2022-08-10T03:41:55.933Z,21.90
2022-08-10T03:44:24.889Z,21.90
2022-08-10T03:46:52.285Z,21.90
2022-08-10T03:49:20.017Z,21.80
2022-08-10T03:51:49.243Z,21.80
2022-08-10T03:54:16.782Z,21.80
2022-08-10T03:56:43.498Z,21.80
2022-08-10T03:59:14.196Z,21.80
2022-08-10T04:02:45.530Z,21.80
2022-08-10T04:04:31.009Z,21.70
2022-08-10T04:06:58.475Z,21.70
2022-08-10T04:09:53.049Z,21.70
2022-08-10T04:12:19.023Z,21.70
2022-08-10T04:14:50.393Z,21.70
2022-08-10T04:17:18.782Z,21.60
2022-08-10T04:20:06.281Z,21.60
2022-08-10T04:22:33.643Z,21.60
2022-08-10T04:25:02.221Z,21.50
2022-08-10T04:27:29.786Z,21.50
2022-08-10T04:29:56.828Z,21.50
2022-08-10T04:32:24.523Z,21.50
2022-08-10T04:34:52.580Z,21.50
2022-08-10T04:37:20.818Z,21.50
2022-08-10T04:39:47.414Z,21.40
2022-08-10T04:42:14.036Z,21.40
2022-08-10T04:44:41.775Z,21.40
2022-08-10T04:47:08.262Z,21.40
2022-08-10T04:49:54.195Z,21.40
2022-08-10T04:52:21.121Z,21.30
2022-08-10T04:54:47.566Z,21.30
2022-08-10T04:57:14.047Z,21.30
2022-08-10T04:59:42.070Z,21.30
2022-08-10T05:02:22.568Z,21.20
2022-08-10T05:04:55.044Z,21.20
2022-08-10T05:07:21.478Z,21.20
2022-08-10T05:10:01.453Z,21.20
2022-08-10T05:12:32.236Z,21.20
2022-08-10T05:15:02.693Z,21.20
2022-08-10T05:17:29.203Z,21.10
2022-08-10T05:20:02.999Z,21.10
2022-08-10T05:22:32.162Z,21.10
2022-08-10T05:24:58.631Z,21.10
2022-08-10T05:27:25.100Z,21.10
2022-08-10T05:30:01.534Z,21.10
2022-08-10T05:32:30.316Z,21.10
2022-08-10T05:34:56.768Z,21.10
2022-08-10T05:38:08.938Z,21.10
2022-08-10T05:40:10.993Z,21.10
2022-08-10T05:42:38.111Z,21.10
2022-08-10T05:45:04.806Z,21.10
2022-08-10T05:48:54.365Z,21.00
2022-08-10T05:50:19.129Z,21.00
2022-08-10T05:52:45.666Z,21.10
2022-08-10T05:55:12.489Z,21.10
2022-08-10T05:57:39.440Z,21.10
2022-08-10T06:00:33.233Z,21.10
2022-08-10T06:02:57.697Z,21.10
2022-08-10T06:05:25.754Z,21.10
2022-08-10T06:07:57.699Z,21.10
2022-08-10T06:10:32.669Z,21.10
2022-08-10T06:13:30.153Z,21.20
2022-08-10T06:16:03.445Z,21.20
2022-08-10T06:18:30.098Z,21.20
2022-08-10T06:20:57.413Z,21.20
2022-08-10T06:23:25.586Z,21.30
2022-08-10T06:26:11.253Z,21.30
2022-08-10T06:28:39.688Z,21.40
2022-08-10T06:31:07.172Z,21.40
2022-08-10T06:33:34.930Z,21.40
2022-08-10T06:36:01.787Z,21.50
2022-08-10T06:38:30.014Z,21.50
2022-08-10T06:40:58.278Z,21.50
2022-08-10T06:43:25.746Z,21.60
2022-08-10T06:46:07.581Z,21.60
2022-08-10T06:48:37.898Z,21.70
2022-08-10T06:51:12.439Z,21.80
2022-08-10T06:53:53.760Z,21.80
2022-08-10T06:56:36.149Z,21.90
2022-08-10T06:59:13.373Z,21.90
2022-08-10T07:01:50.975Z,22.00
2022-08-10T07:04:32.247Z,22.00
2022-08-10T07:07:04.279Z,22.00
2022-08-10T07:09:31.983Z,22.10
2022-08-10T07:12:07.660Z,22.20
2022-08-10T07:14:38.666Z,22.10
2022-08-10T07:17:06.042Z,22.20
2022-08-10T07:19:33.166Z,22.20
2022-08-10T07:21:59.965Z,22.30
2022-08-10T07:24:27.156Z,22.40
2022-08-10T07:26:54.830Z,22.30
2022-08-10T07:29:53.716Z,22.50
2022-08-10T07:32:14.223Z,22.50
2022-08-10T07:34:41.746Z,22.60
2022-08-10T07:37:08.912Z,22.70
2022-08-10T07:39:59.566Z,22.90
2022-08-10T07:42:25.423Z,22.90
2022-08-10T07:44:52.157Z,23.00
2022-08-10T07:47:52.617Z,22.90
2022-08-10T07:50:08.877Z,23.10
2022-08-10T07:52:37.806Z,23.10
2022-08-10T07:55:05.908Z,23.20
2022-08-10T07:57:38.158Z,23.30
2022-08-10T08:00:08.449Z,23.70
2022-08-10T08:03:01.287Z,23.80
2022-08-10T08:05:58.285Z,23.90
2022-08-10T08:08:16.129Z,23.80
2022-08-10T08:10:42.854Z,24.00
2022-08-10T08:13:10.166Z,24.00
2022-08-10T08:16:19.323Z,24.10
2022-08-10T08:18:26.499Z,24.30
2022-08-10T08:20:54.429Z,24.30
2022-08-10T08:24:10.164Z,24.40
2022-08-10T08:26:10.351Z,24.40
2022-08-10T08:28:37.544Z,24.60
2022-08-10T08:31:04.951Z,24.80
2022-08-10T08:33:41.495Z,24.80
2022-08-10T08:36:09.854Z,25.00
2022-08-10T08:38:36.588Z,25.00
2022-08-10T08:41:22.205Z,25.10
2022-08-10T08:44:03.769Z,25.20
2022-08-10T08:46:57.095Z,25.10
2022-08-10T08:50:08.498Z,25.30
2022-08-10T08:52:49.258Z,25.30
2022-08-10T08:56:03.841Z,25.50
2022-08-10T08:58:08.698Z,25.50
2022-08-10T09:00:48.447Z,25.50
2022-08-10T09:03:33.411Z,25.60
2022-08-10T09:06:02.964Z,25.60
2022-08-10T09:08:35.434Z,25.70
2022-08-10T09:11:08.961Z,26.00
2022-08-10T09:13:39.658Z,26.10
2022-08-10T09:16:28.490Z,26.10
2022-08-10T09:19:01.623Z,26.20
2022-08-10T09:22:09.956Z,26.40
2022-08-10T09:24:57.666Z,26.40
2022-08-10T09:27:32.315Z,26.30
2022-08-10T09:30:06.730Z,26.40
2022-08-10T09:36:15.283Z,26.50
2022-08-10T09:36:19.530Z,26.60
2022-08-10T09:38:33.570Z,26.70
2022-08-10T09:41:13.465Z,26.80
2022-08-10T09:43:56.516Z,27.00
2022-08-10T09:46:33.331Z,27.10
2022-08-10T09:49:06.166Z,27.10
2022-08-10T09:51:47.317Z,27.20
2022-08-10T09:54:14.035Z,27.50
2022-08-10T09:57:17.812Z,27.60
2022-08-10T10:00:04.449Z,27.50
2022-08-10T10:02:44.070Z,27.60
2022-08-10T10:05:13.340Z,27.80
2022-08-10T10:07:42.321Z,27.80
2022-08-10T10:10:24.229Z,27.90
2022-08-10T10:13:13.674Z,27.90
2022-08-10T10:15:49.314Z,28.10
2022-08-10T10:18:34.640Z,28.20
2022-08-10T10:21:01.036Z,28.20
2022-08-10T10:23:55.181Z,28.20
2022-08-10T10:26:36.908Z,28.30
2022-08-10T10:29:44.918Z,28.30
2022-08-10T10:32:04.442Z,28.50
2022-08-10T10:34:36.939Z,28.50
2022-08-10T10:37:06.609Z,28.70
2022-08-10T10:39:34.586Z,28.60
2022-08-10T10:42:18.591Z,28.70
2022-08-10T10:45:08.810Z,28.70
2022-08-10T10:47:38.387Z,29.00
2022-08-10T10:50:15.210Z,28.90
2022-08-10T10:53:00.460Z,29.10
2022-08-10T10:56:15.007Z,29.10
2022-08-10T10:59:00.829Z,29.30
2022-08-10T11:01:46.681Z,29.30
2022-08-10T11:04:22.068Z,29.30
2022-08-10T11:06:52.624Z,29.50
2022-08-10T11:10:06.044Z,29.50
2022-08-10T11:12:27.458Z,29.50
2022-08-10T11:14:56.987Z,29.70
2022-08-10T11:17:23.493Z,29.70
2022-08-10T11:20:05.547Z,29.80
2022-08-10T11:22:50.537Z,29.70
2022-08-10T11:25:27.821Z,30.00
2022-08-10T11:28:12.766Z,30.00
2022-08-10T11:30:42.236Z,30.00
2022-08-10T11:33:15.265Z,30.20
2022-08-10T11:36:28.472Z,30.30
2022-08-10T11:39:13.970Z,30.30
2022-08-10T11:42:09.706Z,30.30
2022-08-10T11:44:39.818Z,30.40
2022-08-10T11:47:15.102Z,30.40
2022-08-10T11:49:55.248Z,30.50
2022-08-10T11:52:40.605Z,30.50
2022-08-10T11:55:16.991Z,30.70
2022-08-10T11:57:53.897Z,30.60
2022-08-10T12:00:21.979Z,30.60
2022-08-10T12:02:56.738Z,30.80
2022-08-10T12:05:43.142Z,30.90
2022-08-10T12:10:07.079Z,31.00
2022-08-10T12:10:59.291Z,30.90
2022-08-10T12:13:28.104Z,30.90
2022-08-10T12:16:05.976Z,31.00
2022-08-10T12:18:48.093Z,31.20
2022-08-10T12:21:30.599Z,31.10
2022-08-10T12:24:03.441Z,31.20
2022-08-10T12:26:38.283Z,31.30
2022-08-10T12:29:10.717Z,31.20
2022-08-10T12:31:55.679Z,31.40
2022-08-10T12:34:41.147Z,31.40
2022-08-10T12:37:14.861Z,31.40
2022-08-10T12:39:52.248Z,31.50
2022-08-10T12:44:03.878Z,31.50
2022-08-10T12:45:41.322Z,31.60
2022-08-10T12:48:24.525Z,31.60
2022-08-10T12:51:03.510Z,31.60
2022-08-10T12:53:33.362Z,31.70
2022-08-10T12:56:01.757Z,31.70
2022-08-10T12:58:57.958Z,31.70
2022-08-10T13:01:17.673Z,31.80
2022-08-10T13:04:20.508Z,31.80
2022-08-10T13:06:43.466Z,31.90
2022-08-10T13:09:09.983Z,31.90
2022-08-10T13:12:36.394Z,31.90
2022-08-10T13:14:48.304Z,31.90
2022-08-10T13:17:21.131Z,32.00
2022-08-10T13:19:53.492Z,32.10
2022-08-10T13:22:23.444Z,32.10
2022-08-10T13:24:55.682Z,32.10
2022-08-10T13:28:00.713Z,32.10
2022-08-10T13:30:33.867Z,32.20
2022-08-10T13:33:05.622Z,32.20
2022-08-10T13:35:32.363Z,32.20
2022-08-10T13:38:01.825Z,32.30
2022-08-10T13:40:28.907Z,32.30
2022-08-10T13:42:58.511Z,32.30
2022-08-10T13:45:25.842Z,32.30
2022-08-10T13:48:06.441Z,32.40
2022-08-10T13:50:35.238Z,32.40
2022-08-10T13:53:08.731Z,32.30
2022-08-10T13:55:53.467Z,32.40
2022-08-10T13:58:26.359Z,32.40
2022-08-10T14:00:54.042Z,32.50
2022-08-10T14:03:20.843Z,32.50
2022-08-10T14:05:51.710Z,32.50
2022-08-10T14:08:19.998Z,32.50
2022-08-10T14:11:09.973Z,32.60
2022-08-10T14:13:35.955Z,32.60
2022-08-10T14:16:06.035Z,32.60
2022-08-10T14:18:36.511Z,32.60
2022-08-10T14:21:05.041Z,32.70
2022-08-10T14:23:32.511Z,32.70
2022-08-10T14:26:08.934Z,32.70
2022-08-10T14:28:42.750Z,32.70
2022-08-10T14:31:10.235Z,32.70
2022-08-10T14:33:38.006Z,32.70
2022-08-10T14:36:22.309Z,32.70
2022-08-10T14:38:53.592Z,32.70
2022-08-10T14:42:03.769Z,32.70
2022-08-10T14:44:12.634Z,32.70
2022-08-10T14:46:43.875Z,32.80
2022-08-10T14:49:26.676Z,32.80
2022-08-10T14:51:57.901Z,32.80
2022-08-10T14:54:29.455Z,32.80
2022-08-10T14:56:57.308Z,32.80
2022-08-10T15:00:08.595Z,32.80
2022-08-10T15:02:38.650Z,32.80
2022-08-10T15:05:03.415Z,32.80
2022-08-10T15:07:36.377Z,32.80
2022-08-10T15:10:05.704Z,32.80
2022-08-10T15:12:33.299Z,32.80
2022-08-10T15:15:01.155Z,32.80
2022-08-10T15:17:35.293Z,32.80
2022-08-10T15:20:14.471Z,32.80
2022-08-10T15:22:45.437Z,32.80
2022-08-10T15:25:18.198Z,32.80
2022-08-10T15:27:53.652Z,32.80
2022-08-10T15:30:29.877Z,32.80
2022-08-10T15:33:21.485Z,32.80
2022-08-10T15:36:24.533Z,32.80
2022-08-10T15:38:57.895Z,32.80
2022-08-10T15:41:59.612Z,32.80
2022-08-10T15:44:21.733Z,32.80
2022-08-10T15:46:49.894Z,32.80
2022-08-10T15:49:27.315Z,32.80
2022-08-10T15:52:01.861Z,32.80
2022-08-10T15:54:33.120Z,32.80
2022-08-10T15:57:01.547Z,32.80
2022-08-10T15:59:41.610Z,32.70
2022-08-10T16:02:16.771Z,32.70
2022-08-10T16:04:49.702Z,32.70
2022-08-10T16:07:21.719Z,32.70
2022-08-10T16:10:24.331Z,32.70
2022-08-10T16:12:40.595Z,32.70
2022-08-10T16:15:10.924Z,32.60
2022-08-10T16:17:55.440Z,32.70
2022-08-10T16:20:33.231Z,32.60
2022-08-10T16:23:20.408Z,32.60
2022-08-10T16:25:59.474Z,32.60
2022-08-10T16:28:51.311Z,32.60
2022-08-10T16:31:20.154Z,32.60
2022-08-10T16:33:54.009Z,32.50
2022-08-10T16:36:21.467Z,32.50
2022-08-10T16:38:49.420Z,32.50
2022-08-10T16:41:54.912Z,32.50
2022-08-10T16:44:05.456Z,32.40
2022-08-10T16:46:33.014Z,32.40
2022-08-10T16:49:00.560Z,32.40
2022-08-10T16:51:27.216Z,32.40
2022-08-10T16:53:53.793Z,32.30
2022-08-10T16:56:27.833Z,32.30
2022-08-10T16:58:55.574Z,32.30
2022-08-10T17:01:23.905Z,32.30
2022-08-10T17:04:07.931Z,32.20
2022-08-10T17:06:38.290Z,32.20
2022-08-10T17:09:05.868Z,32.20
2022-08-10T17:11:34.789Z,32.20
2022-08-10T17:14:03.024Z,32.10
2022-08-10T17:16:40.456Z,32.10
2022-08-10T17:19:18.323Z,32.00
2022-08-10T17:21:51.436Z,32.00
2022-08-10T17:24:21.334Z,32.00
2022-08-10T17:26:48.493Z,31.90
2022-08-10T17:29:58.412Z,31.90
2022-08-10T17:32:08.245Z,31.80
2022-08-10T17:34:39.722Z,31.80
2022-08-10T17:37:11.236Z,31.70
2022-08-10T17:39:46.282Z,31.70
2022-08-10T17:42:16.994Z,31.70
2022-08-10T17:44:48.343Z,31.60
2022-08-10T17:47:15.529Z,31.50
2022-08-10T17:49:43.361Z,31.50
2022-08-10T17:52:10.990Z,31.40
2022-08-10T17:54:46.915Z,31.40
2022-08-10T17:57:18.721Z,31.30
2022-08-10T17:59:46.746Z,31.30
2022-08-10T18:02:39.705Z,31.20
2022-08-10T18:05:08.298Z,31.10
2022-08-10T18:07:38.644Z,31.10
2022-08-10T18:10:06.019Z,31.00
2022-08-10T18:12:39.341Z,31.00
2022-08-10T18:15:13.285Z,30.90
2022-08-10T18:17:42.368Z,30.90
2022-08-10T18:20:09.146Z,30.80
2022-08-10T18:22:42.830Z,30.80
2022-08-10T18:25:15.886Z,30.70
2022-08-10T18:28:00.701Z,30.70
2022-08-10T18:30:30.442Z,30.60
2022-08-10T18:33:02.988Z,30.50
2022-08-10T18:35:34.733Z,30.50
2022-08-10T18:38:02.915Z,30.40
2022-08-10T18:40:36.036Z,30.40
2022-08-10T18:43:07.417Z,30.30
2022-08-10T18:45:41.046Z,30.30
2022-08-10T18:48:18.714Z,30.20
2022-08-10T18:50:52.218Z,30.20
2022-08-10T18:53:37.223Z,30.10
2022-08-10T18:56:22.159Z,30.00
2022-08-10T18:59:08.552Z,30.00
2022-08-10T19:01:43.951Z,29.90
2022-08-10T19:04:19.042Z,29.90
2022-08-10T19:07:04.242Z,29.80
2022-08-10T19:09:53.652Z,29.80
2022-08-10T19:12:30.211Z,29.70
2022-08-10T19:15:14.665Z,29.60
2022-08-10T19:18:06.223Z,29.60
2022-08-10T19:20:43.881Z,29.50
2022-08-10T19:23:25.633Z,29.50
2022-08-10T19:26:40.809Z,29.40
2022-08-10T19:28:58.503Z,29.40
2022-08-10T19:31:44.111Z,29.30
2022-08-10T19:34:24.507Z,29.30
2022-08-10T19:37:10.292Z,29.20
2022-08-10T19:40:01.071Z,29.20
2022-08-10T19:42:33.648Z,29.10
2022-08-10T19:45:00.066Z,29.10
2022-08-10T19:47:38.701Z,29.00
2022-08-10T19:50:07.610Z,29.00
2022-08-10T19:52:52.889Z,28.90
2022-08-10T19:55:22.488Z,28.90
2022-08-10T19:57:53.863Z,28.80
2022-08-10T20:00:25.528Z,28.80
2022-08-10T20:03:11.866Z,28.70
2022-08-10T20:06:13.167Z,28.70
2022-08-10T20:08:42.525Z,28.60
2022-08-10T20:11:44.558Z,28.60
2022-08-10T20:14:22.363Z,28.50
2022-08-10T20:16:50.554Z,28.50
2022-08-10T20:19:53.198Z,28.40
2022-08-10T20:22:33.599Z,28.40
2022-08-10T20:25:07.817Z,28.30
2022-08-10T20:27:59.107Z,28.30
2022-08-10T20:30:23.648Z,28.20
2022-08-10T20:32:54.811Z,28.20
2022-08-10T20:35:30.720Z,28.10
2022-08-10T20:38:11.028Z,28.10
2022-08-10T20:40:56.788Z,28.10
2022-08-10T20:43:29.073Z,28.00
2022-08-10T20:46:07.803Z,28.00
2022-08-10T20:48:38.007Z,27.90
2022-08-10T20:51:06.866Z,27.90
2022-08-10T20:53:34.253Z,27.90
2022-08-10T20:56:08.718Z,27.80
2022-08-10T20:58:47.611Z,27.80
2022-08-10T21:01:17.317Z,27.80
2022-08-10T21:03:44.208Z,27.70
2022-08-10T21:06:42.942Z,27.70
2022-08-10T21:09:22.364Z,27.60
2022-08-10T21:12:00.777Z,27.60
2022-08-10T21:14:43.878Z,27.50
2022-08-10T21:17:24.746Z,27.50
2022-08-10T21:20:11.436Z,27.50
2022-08-10T21:22:43.180Z,27.40
2022-08-10T21:25:18.802Z,27.40
2022-08-10T21:28:03.972Z,27.30
2022-08-10T21:30:39.560Z,27.30
2022-08-10T21:33:09.016Z,27.30
2022-08-10T21:35:42.477Z,27.20
2022-08-10T21:38:27.570Z,27.20
2022-08-10T21:41:17.833Z,27.10
2022-08-10T21:44:02.043Z,27.10
2022-08-10T21:47:05.849Z,27.10
2022-08-10T21:49:57.501Z,27.00
2022-08-10T21:52:54.178Z,27.00
2022-08-10T21:55:58.138Z,27.00
2022-08-10T21:59:06.832Z,26.90
2022-08-10T22:01:55.388Z,26.90
2022-08-10T22:04:40.394Z,26.80
2022-08-10T22:07:33.338Z,26.80
2022-08-10T22:10:21.566Z,26.70
2022-08-10T22:13:11.391Z,26.70
2022-08-10T22:16:03.667Z,26.70
2022-08-10T22:19:02.376Z,26.60
2022-08-10T22:22:19.823Z,26.60
2022-08-10T22:25:21.948Z,26.50
2022-08-10T22:28:12.472Z,26.50
2022-08-10T22:31:30.282Z,26.50
2022-08-10T22:34:16.181Z,26.40
2022-08-10T22:37:29.713Z,26.40
2022-08-10T22:40:17.659Z,26.30
2022-08-10T22:43:10.304Z,26.30
2022-08-10T22:46:08.856Z,26.20
2022-08-10T22:49:00.783Z,26.20
2022-08-10T22:51:48.696Z,26.20
2022-08-10T22:54:36.902Z,26.10
2022-08-10T22:57:22.265Z,26.10
2022-08-10T22:59:49.450Z,26.10
2022-08-10T23:02:22.093Z,26.00
2022-08-10T23:04:52.009Z,26.00
2022-08-10T23:07:18.623Z,26.00
2022-08-10T23:09:46.231Z,25.90
2022-08-10T23:12:14.071Z,25.90
2022-08-10T23:14:41.465Z,25.90
2022-08-10T23:18:01.449Z,25.80
2022-08-10T23:20:30.099Z,25.80
2022-08-10T23:23:03.629Z,25.70
2022-08-10T23:25:34.231Z,25.70
2022-08-10T23:28:12.542Z,25.70
2022-08-10T23:30:40.534Z,25.70
2022-08-10T23:33:12.160Z,25.60
2022-08-10T23:36:30.824Z,25.60
2022-08-10T23:38:31.444Z,25.50
2022-08-10T23:41:02.536Z,25.50
2022-08-10T23:44:00.426Z,25.50
2022-08-10T23:46:17.716Z,25.40
2022-08-10T23:48:45.631Z,25.40
2022-08-10T23:51:16.037Z,25.40
2022-08-10T23:53:44.613Z,25.30
2022-08-10T23:56:11.013Z,25.30
2022-08-10T23:58:45.471Z,25.30
